Terminal Aerodrome Forecast
Issued by NWS

Home | Current Version | Previous Version | Text Only | Print | Product List | Glossary On
Versions: 1 2 3 4 5 6 7 8 9 10 11 12 13 14 15 16 17
000
FTUS42 KTBW 021125
TAFLAL
TAF
KLAL 021125Z 0212/0312 VRB05KT P6SM VCSH SCT025 SCT100 BKN250
     FM021600 24006KT 6SM SHRA BKN040 OVC120
      TEMPO 0216/0220 3SM TSRA BKN030CB
     FM022200 VRB05KT P6SM VCSH SCT030 BKN050 BKN150=

USA.gov is the U.S. government's official web portal to all federal, state and local government web resources and services.